Time;durP1;ratioP1;P1;durP2;ratioP2;P2;SDS_P1;SDS_P2;PMS_P1;PMS_P2;Temp;Humidity;BMP_temperature;BMP_pressure;BME280_temperature;BME280_humidity;BME280_pressure;Samples;Min_cycle;Max_cycle;Signal;HPM_P1;HPM_P2
2023/11/01 00:00:26;;;;;;;8.33;8.17;;;21.50;89.70;;;;;;5004700;28;20978;-67
2023/11/01 00:02:53;;;;;;;7.70;7.60;;;21.50;89.70;;;;;;5006066;28;20453;-66
2023/11/01 00:05:20;;;;;;;7.60;7.47;;;21.50;90.00;;;;;;5004150;28;20486;-66
2023/11/01 00:07:47;;;;;;;8.77;8.57;;;21.60;90.10;;;;;;5002207;28;20458;-66
2023/11/01 00:10:14;;;;;;;8.17;7.97;;;21.60;90.20;;;;;;5002447;28;20565;-69
2023/11/01 00:12:41;;;;;;;7.57;7.47;;;21.60;90.10;;;;;;5005257;28;20955;-69
2023/11/01 00:15:09;;;;;;;7.70;7.50;;;21.60;90.10;;;;;;5005225;28;20493;-70
2023/11/01 00:17:37;;;;;;;8.00;7.80;;;21.50;90.00;;;;;;5001751;28;20525;-69
2023/11/01 00:20:05;;;;;;;8.20;8.00;;;21.50;90.00;;;;;;5001921;28;20930;-69
2023/11/01 00:22:32;;;;;;;7.77;7.47;;;21.50;90.00;;;;;;5004382;28;20443;-69
2023/11/01 00:25:00;;;;;;;7.77;7.53;;;21.50;90.00;;;;;;5004916;28;20505;-69
2023/11/01 00:27:30;;;;;;;8.07;7.87;;;21.50;90.10;;;;;;5002844;28;20449;-69
2023/11/01 00:29:57;;;;;;;7.73;7.47;;;21.40;90.30;;;;;;5001546;28;20509;-69
2023/11/01 00:32:24;;;;;;;7.30;7.10;;;21.40;90.00;;;;;;5003220;28;20474;-69
2023/11/01 00:34:53;;;;;;;8.13;7.93;;;21.50;90.00;;;;;;5004759;28;20490;-69
2023/11/01 00:37:20;;;;;;;7.50;7.10;;;21.40;90.00;;;;;;5003525;28;20452;-69
2023/11/01 00:39:47;;;;;;;7.93;7.73;;;21.40;90.00;;;;;;5001458;28;20478;-69
2023/11/01 00:42:14;;;;;;;7.77;7.47;;;21.40;90.00;;;;;;5001369;28;20486;-69
2023/11/01 00:44:41;;;;;;;7.77;7.67;;;21.40;90.00;;;;;;5004619;28;20489;-69
2023/11/01 00:47:08;;;;;;;7.60;7.40;;;21.40;90.00;;;;;;5004581;28;20858;-69
2023/11/01 00:49:35;;;;;;;8.67;8.47;;;21.40;90.00;;;;;;5001471;28;20481;-69
2023/11/01 00:52:03;;;;;;;7.97;7.80;;;21.40;89.90;;;;;;5000995;28;20514;-69
2023/11/01 00:54:30;;;;;;;7.47;7.27;;;21.40;90.00;;;;;;5003137;28;20509;-69
2023/11/01 00:56:57;;;;;;;7.70;7.50;;;21.40;90.00;;;;;;5004512;28;20475;-69
2023/11/01 00:59:24;;;;;;;8.90;8.60;;;21.40;90.00;;;;;;5002995;28;20480;-69
2023/11/01 01:01:49;;;;;;;7.80;7.60;;;21.40;89.90;;;;;;5001069;28;20474;-69
2023/11/01 01:04:16;;;;;;;7.43;7.23;;;21.40;89.90;;;;;;5000872;28;20490;-70
2023/11/01 01:06:43;;;;;;;8.50;8.30;;;21.40;89.80;;;;;;5004365;28;20230;-69
2023/11/01 01:09:12;;;;;;;7.73;7.53;;;21.40;89.80;;;;;;5004218;28;20478;-69
2023/11/01 01:11:39;;;;;;;8.80;8.60;;;21.40;90.20;;;;;;4992925;28;20509;-69
2023/11/01 01:14:06;;;;;;;8.80;8.60;;;21.40;89.90;;;;;;5000742;28;20498;-69
2023/11/01 01:16:33;;;;;;;7.73;7.53;;;21.40;90.00;;;;;;5003269;28;20508;-69
2023/11/01 01:19:00;;;;;;;8.10;7.90;;;21.30;90.20;;;;;;5004096;28;20474;-69
2023/11/01 01:21:27;;;;;;;8.10;7.90;;;21.40;89.80;;;;;;5002288;28;20462;-69
2023/11/01 01:23:53;;;;;;;8.37;8.07;;;21.30;89.70;;;;;;5000711;28;20517;-69
2023/11/01 01:26:22;;;;;;;8.00;7.80;;;21.40;89.80;;;;;;5001688;28;20475;-69
2023/11/01 01:28:49;;;;;;;8.20;8.00;;;21.40;89.80;;;;;;5003927;28;20876;-69
2023/11/01 01:31:16;;;;;;;7.70;7.60;;;21.40;89.80;;;;;;5003386;28;20478;-69
2023/11/01 01:33:44;;;;;;;8.40;8.00;;;21.30;89.80;;;;;;5000475;28;20517;-69
2023/11/01 01:36:11;;;;;;;8.60;8.30;;;21.30;89.80;;;;;;5000378;28;20446;-68
2023/11/01 01:38:38;;;;;;;8.63;8.43;;;21.30;89.80;;;;;;5003435;28;20444;-70
2023/11/01 01:41:06;;;;;;;7.67;7.47;;;21.30;89.90;;;;;;5003762;28;20965;-69
2023/11/01 01:43:34;;;;;;;7.90;7.70;;;21.30;89.90;;;;;;5001105;28;20466;-69
2023/11/01 01:46:08;;;;;;;8.10;7.90;;;21.30;90.00;;;;;;5000330;28;20954;-69
2023/11/01 01:48:36;;;;;;;7.97;7.77;;;21.30;90.00;;;;;;5002928;28;20962;-69
2023/11/01 01:51:04;;;;;;;7.97;7.77;;;21.30;90.00;;;;;;5003622;28;20561;-69
2023/11/01 01:53:32;;;;;;;8.03;7.60;;;21.30;90.00;;;;;;5001198;28;20489;-68
2023/11/01 01:56:00;;;;;;;8.20;8.00;;;21.30;90.00;;;;;;5000172;28;20471;-68
2023/11/01 01:58:28;;;;;;;7.40;7.20;;;21.30;90.00;;;;;;5001604;28;20508;-69
2023/11/01 02:00:58;;;;;;;7.60;7.40;;;21.30;90.00;;;;;;5003515;28;20473;-69
2023/11/01 02:03:25;;;;;;;8.73;8.53;;;21.30;90.00;;;;;;5002279;28;20476;-70
2023/11/01 02:05:52;;;;;;;9.47;9.27;;;21.30;90.00;;;;;;5000010;28;20439;-69
2023/11/01 02:08:20;;;;;;;8.57;8.33;;;21.30;90.00;;;;;;5000388;28;20974;-68
2023/11/01 02:10:47;;;;;;;8.80;8.60;;;21.30;90.00;;;;;;5003336;28;20482;-68
2023/11/01 02:13:15;;;;;;;8.90;8.70;;;21.30;90.00;;;;;;5003309;28;20477;-68
2023/11/01 02:15:43;;;;;;;9.67;9.47;;;21.30;90.00;;;;;;4992068;28;20483;-67
2023/11/01 02:18:13;;;;;;;8.40;8.20;;;21.30;90.00;;;;;;5003340;28;20470;-68
2023/11/01 02:20:42;;;;;;;8.80;8.60;;;21.20;90.00;;;;;;5007061;28;20458;-68
2023/11/01 02:23:11;;;;;;;8.80;8.60;;;21.30;90.10;;;;;;5007258;28;20473;-69
2023/11/01 02:25:40;;;;;;;9.13;8.83;;;21.20;90.10;;;;;;5004171;28;20466;-67
2023/11/01 02:28:09;;;;;;;9.20;9.00;;;21.30;90.10;;;;;;5003830;28;20481;-68
2023/11/01 02:30:37;;;;;;;9.03;8.83;;;21.20;90.00;;;;;;5006350;28;22372;-68
2023/11/01 02:33:04;;;;;;;9.27;9.07;;;21.20;90.00;;;;;;5006922;28;20442;-68
2023/11/01 02:35:31;;;;;;;10.30;10.00;;;21.20;90.00;;;;;;5005081;28;20450;-68
2023/11/01 02:37:58;;;;;;;10.20;10.00;;;21.20;90.00;;;;;;5003680;28;20482;-68
2023/11/01 02:40:24;;;;;;;9.70;9.40;;;21.20;90.00;;;;;;5004515;28;20443;-68
2023/11/01 02:42:55;;;;;;;9.83;9.53;;;21.30;90.00;;;;;;5006929;28;20954;-69
2023/11/01 02:45:22;;;;;;;7.43;7.27;;;21.20;90.00;;;;;;5006196;28;20973;-69
2023/11/01 02:47:49;;;;;;;7.90;7.70;;;21.30;90.00;;;;;;5003604;28;20438;-68
2023/11/01 02:50:19;;;;;;;8.13;7.93;;;21.20;90.00;;;;;;5003448;28;20439;-68
2023/11/01 02:52:46;;;;;;;7.17;7.07;;;21.30;90.00;;;;;;4995819;28;20482;-68
2023/11/01 02:55:15;;;;;;;8.70;8.40;;;21.30;90.00;;;;;;5003116;28;20493;-69
2023/11/01 02:57:42;;;;;;;7.57;7.37;;;21.20;89.80;;;;;;5003459;28;20482;-69
2023/11/01 03:00:18;;;;;;;7.90;7.70;;;21.20;90.00;;;;;;5003193;28;20445;-69
2023/11/01 03:02:46;;;;;;;8.20;8.00;;;21.20;90.00;;;;;;5006664;28;20441;-69
2023/11/01 03:05:13;;;;;;;8.43;8.23;;;21.20;90.00;;;;;;5006417;28;20472;-69
2023/11/01 03:07:40;;;;;;;8.00;7.80;;;21.20;90.00;;;;;;5003484;28;20485;-69
2023/11/01 03:10:08;;;;;;;8.60;8.33;;;21.20;90.00;;;;;;5003072;28;20866;-69
2023/11/01 03:12:35;;;;;;;7.73;7.53;;;21.20;90.10;;;;;;5005277;28;20502;-69
2023/11/01 03:15:04;;;;;;;8.30;8.03;;;21.20;90.10;;;;;;5006277;28;20489;-69
2023/11/01 03:17:32;;;;;;;8.10;7.90;;;21.20;90.20;;;;;;5004504;28;20985;-69
2023/11/01 03:19:59;;;;;;;8.50;8.30;;;21.20;90.20;;;;;;5002866;28;20478;-69
2023/11/01 03:22:26;;;;;;;8.23;7.83;;;21.20;90.20;;;;;;5003840;28;20439;-69
2023/11/01 03:24:53;;;;;;;8.30;8.20;;;21.20;90.20;;;;;;5006135;28;20501;-69
2023/11/01 03:27:20;;;;;;;8.30;8.10;;;21.20;90.20;;;;;;5005708;28;20477;-69
2023/11/01 03:29:47;;;;;;;8.60;8.40;;;21.20;90.20;;;;;;5002676;28;20982;-69
2023/11/01 03:32:14;;;;;;;7.80;7.70;;;21.20;90.50;;;;;;5002635;28;20510;-69
2023/11/01 03:34:42;;;;;;;8.10;7.90;;;21.20;90.20;;;;;;5005342;28;20512;-69
2023/11/01 03:37:09;;;;;;;7.97;7.67;;;21.20;90.20;;;;;;5006054;28;20481;-69
2023/11/01 03:39:35;;;;;;;8.10;7.90;;;21.20;90.10;;;;;;5003645;28;20474;-69
2023/11/01 03:42:04;;;;;;;7.70;7.57;;;21.20;90.10;;;;;;5002423;28;20477;-69
2023/11/01 03:44:32;;;;;;;7.37;7.23;;;21.20;90.10;;;;;;5003809;28;20499;-69
2023/11/01 03:46:59;;;;;;;8.10;7.80;;;21.20;90.40;;;;;;5005705;28;20933;-69
2023/11/01 03:49:29;;;;;;;7.87;7.67;;;21.20;90.10;;;;;;5004652;28;20925;-69
2023/11/01 03:51:58;;;;;;;8.50;8.20;;;21.20;90.10;;;;;;5002327;28;20526;-69
2023/11/01 03:54:25;;;;;;;7.60;7.40;;;21.20;90.10;;;;;;5002526;28;20505;-69
2023/11/01 03:56:53;;;;;;;8.10;7.90;;;21.20;90.20;;;;;;5005594;28;20470;-69
2023/11/01 03:59:20;;;;;;;8.03;7.83;;;21.20;90.20;;;;;;5005535;28;20481;-69
2023/11/01 04:01:47;;;;;;;7.97;7.77;;;21.10;90.30;;;;;;4989814;28;20466;-69
2023/11/01 04:04:14;;;;;;;8.47;8.27;;;21.20;90.40;;;;;;5005162;28;20497;-68
2023/11/01 04:06:41;;;;;;;8.60;8.30;;;21.20;90.50;;;;;;5002505;28;20951;-68
2023/11/01 04:09:10;;;;;;;8.90;8.70;;;21.10;90.50;;;;;;5002082;28;20889;-68
2023/11/01 04:11:37;;;;;;;9.30;8.97;;;21.10;90.60;;;;;;5003965;28;20851;-68
2023/11/01 04:14:04;;;;;;;8.10;7.90;;;21.10;90.70;;;;;;5005189;28;20517;-68
2023/11/01 04:16:31;;;;;;;9.10;8.90;;;21.20;90.70;;;;;;5003664;28;20456;-68
2023/11/01 04:18:58;;;;;;;8.47;8.27;;;21.10;90.70;;;;;;5001831;28;20481;-68
2023/11/01 04:21:25;;;;;;;8.33;8.13;;;21.20;90.80;;;;;;5002162;28;20875;-68
2023/11/01 04:23:53;;;;;;;8.50;8.30;;;21.20;90.80;;;;;;5004922;28;21004;-68
2023/11/01 04:26:21;;;;;;;8.53;8.33;;;21.20;90.90;;;;;;5005001;28;20930;-68
2023/11/01 04:28:48;;;;;;;8.90;8.70;;;21.20;90.90;;;;;;4993769;28;20481;-68
2023/11/01 04:31:17;;;;;;;8.20;8.00;;;21.20;90.90;;;;;;5001799;28;20932;-68
2023/11/01 04:33:44;;;;;;;8.67;8.47;;;21.20;90.90;;;;;;5004157;28;20470;-68
2023/11/01 04:36:11;;;;;;;8.30;8.00;;;21.20;91.00;;;;;;5004786;28;20478;-68
2023/11/01 04:38:38;;;;;;;8.30;8.10;;;21.10;91.00;;;;;;5002428;28;20473;-68
2023/11/01 04:41:09;;;;;;;9.13;8.93;;;21.10;91.00;;;;;;5000882;28;20451;-68
2023/11/01 04:43:37;;;;;;;8.83;8.63;;;21.10;91.00;;;;;;5003047;28;20475;-68
2023/11/01 04:46:05;;;;;;;9.00;8.70;;;21.10;91.10;;;;;;5004694;28;20529;-68
2023/11/01 04:48:32;;;;;;;9.50;9.30;;;21.10;91.20;;;;;;5003110;28;20888;-68
2023/11/01 04:50:59;;;;;;;9.90;9.60;;;21.20;91.20;;;;;;5001196;28;20474;-67
2023/11/01 04:53:28;;;;;;;8.93;8.63;;;21.20;91.20;;;;;;5001378;28;20970;-68
2023/11/01 04:55:55;;;;;;;8.73;8.53;;;21.20;91.20;;;;;;5004632;28;20803;-68
2023/11/01 04:58:22;;;;;;;8.73;8.53;;;21.20;91.60;;;;;;5004479;28;20466;-67
2023/11/01 05:00:50;;;;;;;9.53;9.00;;;21.20;91.30;;;;;;4988564;28;20466;-68
2023/11/01 05:03:17;;;;;;;9.13;8.93;;;21.10;91.30;;;;;;5004256;28;20472;-68
2023/11/01 05:05:44;;;;;;;8.70;8.50;;;21.20;91.40;;;;;;5001235;28;20439;-68
2023/11/01 05:08:11;;;;;;;9.10;8.90;;;21.10;91.30;;;;;;5000899;28;20467;-67
2023/11/01 05:10:38;;;;;;;10.10;9.83;;;21.10;91.40;;;;;;5002942;28;20493;-68
2023/11/01 05:13:06;;;;;;;10.50;10.20;;;21.10;91.40;;;;;;5003969;28;20516;-68
2023/11/01 05:15:36;;;;;;;9.70;9.50;;;21.10;91.40;;;;;;5002651;28;20442;-68
2023/11/01 05:18:04;;;;;;;10.60;10.30;;;21.10;91.40;;;;;;5001001;28;20522;-69
2023/11/01 05:20:32;;;;;;;9.83;9.60;;;21.10;91.40;;;;;;5001695;28;20451;-68
2023/11/01 05:22:59;;;;;;;9.57;9.37;;;21.10;91.40;;;;;;5003986;28;20861;-68
2023/11/01 05:25:26;;;;;;;11.23;10.93;;;21.10;91.40;;;;;;5003562;28;20470;-68
2023/11/01 05:27:53;;;;;;;11.70;11.40;;;21.10;91.40;;;;;;5000524;28;20534;-68
2023/11/01 05:30:20;;;;;;;11.70;11.40;;;21.10;91.50;;;;;;5000662;28;20478;-67
2023/11/01 05:32:48;;;;;;;11.20;11.00;;;21.10;91.50;;;;;;5003491;28;20564;-68
2023/11/01 05:35:16;;;;;;;10.77;10.47;;;21.10;91.50;;;;;;5003848;28;20493;-68
2023/11/01 05:37:44;;;;;;;11.83;11.50;;;21.10;91.50;;;;;;5001177;28;20486;-68
2023/11/01 05:40:14;;;;;;;10.60;10.40;;;21.10;91.50;;;;;;5000410;28;20446;-68
2023/11/01 05:42:42;;;;;;;10.77;10.57;;;21.10;91.50;;;;;;5002488;28;20453;-68
2023/11/01 05:45:09;;;;;;;11.13;10.83;;;21.10;91.50;;;;;;5003716;28;20469;-68
2023/11/01 05:47:36;;;;;;;10.90;10.70;;;21.10;91.60;;;;;;5002123;28;20486;-68
2023/11/01 05:50:06;;;;;;;10.70;10.50;;;21.10;91.60;;;;;;5000384;28;20470;-68
2023/11/01 05:52:34;;;;;;;10.13;9.93;;;21.10;91.60;;;;;;5001116;28;20483;-68
2023/11/01 05:55:01;;;;;;;10.50;10.23;;;21.20;91.70;;;;;;5003503;28;20512;-69
2023/11/01 05:57:28;;;;;;;9.80;9.60;;;21.10;91.70;;;;;;5003211;28;20897;-68
2023/11/01 05:59:55;;;;;;;11.23;10.93;;;21.10;91.70;;;;;;5000231;28;20470;-67
2023/11/01 06:02:22;;;;;;;12.30;11.93;;;21.10;91.80;;;;;;5000136;28;20466;-68
2023/11/01 06:04:49;;;;;;;11.00;10.70;;;21.10;91.80;;;;;;5003174;28;20500;-69
2023/11/01 06:07:16;;;;;;;11.23;10.93;;;21.10;91.80;;;;;;5003552;28;20466;-68
2023/11/01 06:09:45;;;;;;;10.70;10.50;;;21.10;91.80;;;;;;5000928;28;20446;-68
2023/11/01 06:12:12;;;;;;;10.30;10.10;;;21.10;91.80;;;;;;4999964;28;20590;-68
2023/11/01 06:14:38;;;;;;;11.20;10.90;;;21.10;91.80;;;;;;5001643;28;20970;-68
2023/11/01 06:17:05;;;;;;;9.90;9.70;;;21.10;91.90;;;;;;5003341;28;20472;-69
2023/11/01 06:19:34;;;;;;;10.00;9.80;;;21.10;91.90;;;;;;5002470;28;20481;-68
2023/11/01 06:22:04;;;;;;;11.03;10.80;;;21.10;92.00;;;;;;5000011;28;20443;-68
2023/11/01 06:24:32;;;;;;;11.90;11.60;;;21.10;92.10;;;;;;5000496;28;20542;-68
2023/11/01 06:27:00;;;;;;;11.67;11.37;;;21.10;92.10;;;;;;5003347;28;20946;-68
2023/11/01 06:29:27;;;;;;;11.07;10.87;;;21.10;92.10;;;;;;5002962;28;20481;-67
2023/11/01 06:31:54;;;;;;;11.37;11.07;;;21.10;92.20;;;;;;4999700;28;20487;-68
2023/11/01 06:34:21;;;;;;;11.30;11.00;;;21.10;92.20;;;;;;4999711;28;20506;-68
2023/11/01 06:36:48;;;;;;;11.50;11.10;;;21.10;92.30;;;;;;5002592;28;20520;-68
2023/11/01 06:39:15;;;;;;;11.57;11.27;;;21.20;92.30;;;;;;5003445;28;20469;-65
2023/11/01 06:41:42;;;;;;;11.83;11.50;;;21.20;93.50;;;;;;5001043;28;20480;-65
2023/11/01 06:44:13;;;;;;;12.13;11.73;;;21.20;94.00;;;;;;4999695;28;20503;-67
2023/11/01 06:46:40;;;;;;;11.80;11.50;;;21.30;94.80;;;;;;5000979;28;20458;-67
2023/11/01 06:49:07;;;;;;;11.57;11.27;;;21.30;95.30;;;;;;5003374;28;20516;-68
2023/11/01 06:51:33;;;;;;;11.83;11.53;;;21.40;95.30;;;;;;5003084;28;20481;-65
2023/11/01 06:54:01;;;;;;;12.87;12.23;;;21.40;96.20;;;;;;5000414;28;20507;-67
2023/11/01 06:56:27;;;;;;;10.83;10.63;;;21.40;94.80;;;;;;5000397;28;20443;-65
2023/11/01 06:58:54;;;;;;;11.30;11.00;;;21.40;94.50;;;;;;5003496;28;20474;-61
2023/11/01 07:01:23;;;;;;;12.20;11.70;;;21.50;94.40;;;;;;5003697;28;20477;-68
2023/11/01 07:03:50;;;;;;;11.70;11.30;;;21.50;94.40;;;;;;5003028;28;20538;-71
2023/11/01 07:06:17;;;;;;;12.03;11.63;;;21.50;94.40;;;;;;5003085;28;20443;-68
2023/11/01 07:08:43;;;;;;;11.73;11.33;;;21.50;94.40;;;;;;5005854;28;20453;-65
2023/11/01 07:11:11;;;;;;;13.00;12.40;;;21.50;94.40;;;;;;5005877;28;20517;-66
2023/11/01 07:13:38;;;;;;;9.60;9.13;;;21.50;94.70;;;;;;5004392;28;20486;-68
2023/11/01 07:16:06;;;;;;;11.37;10.97;;;21.50;94.50;;;;;;5003829;28;20235;-68
2023/11/01 07:18:34;;;;;;;12.00;11.70;;;21.50;94.10;;;;;;5004440;28;20898;-67
2023/11/01 07:21:01;;;;;;;11.83;11.53;;;21.70;94.50;;;;;;5007432;28;20473;-67
2023/11/01 07:23:28;;;;;;;11.40;11.10;;;21.70;93.50;;;;;;5007045;28;20880;-66
2023/11/01 07:25:55;;;;;;;12.40;11.90;;;21.80;93.50;;;;;;5003730;28;20494;-66
2023/11/01 07:28:22;;;;;;;12.87;12.50;;;21.80;93.40;;;;;;5003902;28;20479;-66
2023/11/01 07:30:49;;;;;;;12.10;11.80;;;21.80;93.30;;;;;;5006419;28;20470;-68
2023/11/01 07:33:15;;;;;;;12.60;12.20;;;21.90;93.50;;;;;;5007301;28;20501;-69
2023/11/01 07:35:44;;;;;;;12.67;11.93;;;21.90;93.30;;;;;;5005061;28;20506;-69
2023/11/01 07:38:11;;;;;;;12.97;12.60;;;21.80;93.30;;;;;;5003811;28;20474;-69
2023/11/01 07:40:37;;;;;;;12.03;11.63;;;21.90;93.20;;;;;;5011797;28;20980;-69
2023/11/01 07:43:04;;;;;;;10.90;10.60;;;21.90;93.20;;;;;;5003730;28;21004;-69
2023/11/01 07:45:31;;;;;;;12.40;12.10;;;21.90;93.10;;;;;;5003636;28;20471;-69
2023/11/01 07:47:58;;;;;;;13.10;12.80;;;21.90;93.10;;;;;;5006780;28;20470;-66
2023/11/01 07:50:25;;;;;;;13.47;13.07;;;22.00;93.10;;;;;;5006758;28;20946;-66
2023/11/01 07:52:54;;;;;;;12.50;12.10;;;22.00;92.80;;;;;;5003366;28;20513;-66
2023/11/01 07:55:22;;;;;;;12.70;12.40;;;22.00;93.60;;;;;;5002797;28;20525;-66
2023/11/01 07:57:49;;;;;;;13.30;12.90;;;22.00;92.80;;;;;;5005502;28;20474;-65
2023/11/01 08:00:16;;;;;;;13.40;12.90;;;22.00;92.70;;;;;;5006465;28;20466;-67
2023/11/01 08:02:43;;;;;;;12.70;12.40;;;22.00;92.80;;;;;;5004756;28;20470;-67
2023/11/01 08:05:10;;;;;;;12.10;11.80;;;22.00;93.20;;;;;;5008570;28;20477;-67
2023/11/01 08:07:38;;;;;;;12.87;12.47;;;22.00;93.00;;;;;;5005199;28;20477;-67
2023/11/01 08:10:07;;;;;;;12.63;12.20;;;22.00;93.10;;;;;;5002735;28;20526;-68
2023/11/01 08:12:34;;;;;;;12.27;11.97;;;22.00;93.10;;;;;;5002773;28;20478;-68
2023/11/01 08:15:01;;;;;;;12.70;12.00;;;22.00;93.10;;;;;;5004712;28;20500;-69
2023/11/01 08:17:28;;;;;;;12.60;12.30;;;22.00;93.10;;;;;;5006046;28;20442;-69
2023/11/01 08:19:56;;;;;;;13.00;12.60;;;22.00;93.00;;;;;;5002477;28;20470;-68
2023/11/01 08:22:23;;;;;;;13.20;12.70;;;22.10;93.20;;;;;;5002523;28;20501;-66
2023/11/01 08:24:50;;;;;;;13.27;12.97;;;22.10;93.20;;;;;;5005071;28;20962;-67
2023/11/01 08:27:19;;;;;;;12.13;11.83;;;22.10;93.00;;;;;;5005838;28;20442;-69
2023/11/01 08:29:46;;;;;;;11.50;11.20;;;22.10;93.00;;;;;;5004107;28;20969;-70
2023/11/01 08:32:13;;;;;;;12.83;12.53;;;22.10;92.80;;;;;;5002683;28;20962;-68
2023/11/01 08:34:39;;;;;;;14.23;13.70;;;22.10;92.80;;;;;;5003659;28;20498;-68
2023/11/01 08:37:06;;;;;;;12.57;12.17;;;22.10;92.80;;;;;;5005947;28;20480;-66
2023/11/01 08:39:34;;;;;;;10.80;10.50;;;22.10;92.90;;;;;;5005338;28;20455;-66
2023/11/01 08:42:01;;;;;;;12.37;12.07;;;22.20;93.20;;;;;;5001337;28;20206;-64
2023/11/01 08:44:29;;;;;;;11.60;11.27;;;22.20;93.10;;;;;;5001219;28;20486;-64
2023/11/01 08:46:56;;;;;;;10.70;10.40;;;22.20;93.20;;;;;;5004427;28;20480;-64
2023/11/01 08:49:23;;;;;;;11.73;11.37;;;22.30;93.20;;;;;;5004582;28;20784;-64
2023/11/01 08:51:50;;;;;;;11.23;10.93;;;22.40;93.10;;;;;;5002219;28;20450;-63
2023/11/01 08:54:17;;;;;;;11.07;10.77;;;22.40;93.10;;;;;;5001069;28;20518;-63
2023/11/01 08:56:44;;;;;;;10.80;10.50;;;22.40;93.10;;;;;;5002508;28;20479;-64
2023/11/01 08:59:11;;;;;;;11.03;10.83;;;22.40;93.10;;;;;;5004517;28;20953;-64
2023/11/01 09:01:43;;;;;;;11.23;10.73;;;22.50;93.10;;;;;;5003887;28;20983;-62
2023/11/01 09:04:13;;;;;;;10.40;10.20;;;22.50;93.20;;;;;;5000897;28;20994;-64
2023/11/01 09:06:40;;;;;;;11.13;10.73;;;22.50;93.00;;;;;;5001814;28;20969;-66
2023/11/01 09:09:07;;;;;;;11.80;11.40;;;22.60;93.20;;;;;;5004299;28;20887;-64
2023/11/01 09:11:34;;;;;;;11.50;11.20;;;22.60;93.00;;;;;;5004018;28;20890;-63
2023/11/01 09:14:01;;;;;;;11.93;11.63;;;22.60;92.90;;;;;;5000647;28;20578;-65
2023/11/01 09:16:28;;;;;;;10.83;10.53;;;22.60;92.90;;;;;;5000805;28;20482;-63
2023/11/01 09:18:57;;;;;;;10.57;10.27;;;22.60;92.80;;;;;;5003595;28;20473;-63
2023/11/01 09:21:24;;;;;;;10.23;9.93;;;22.60;92.80;;;;;;5004097;28;20533;-68
2023/11/01 09:23:51;;;;;;;10.97;10.77;;;22.70;92.90;;;;;;5001598;28;20485;-64
2023/11/01 09:26:19;;;;;;;11.90;11.40;;;22.70;93.20;;;;;;4998505;28;20442;-66
2023/11/01 09:28:46;;;;;;;12.10;11.80;;;22.70;93.60;;;;;;5001995;28;20456;-68
2023/11/01 09:31:14;;;;;;;11.50;11.20;;;22.70;93.30;;;;;;5000652;28;20866;-64
2023/11/01 09:33:41;;;;;;;11.13;10.80;;;22.70;93.40;;;;;;5000795;28;20483;-64
2023/11/01 09:36:11;;;;;;;12.63;12.33;;;22.70;93.10;;;;;;5007575;28;20477;-66
2023/11/01 09:38:38;;;;;;;12.47;11.97;;;22.80;93.40;;;;;;5000824;28;20509;-66
2023/11/01 09:41:07;;;;;;;11.13;10.83;;;22.80;93.40;;;;;;5003688;28;20972;-66
2023/11/01 09:43:35;;;;;;;12.13;11.70;;;22.80;92.80;;;;;;4995611;28;20470;-68
2023/11/01 09:46:03;;;;;;;11.83;11.50;;;22.80;93.00;;;;;;5000136;28;20451;-64
2023/11/01 09:48:31;;;;;;;11.10;10.90;;;22.80;92.70;;;;;;5000822;28;20450;-64
2023/11/01 09:50:58;;;;;;;12.47;12.17;;;22.90;92.80;;;;;;5000249;28;20443;-63
2023/11/01 09:53:27;;;;;;;11.80;11.50;;;22.90;92.70;;;;;;5000010;28;20570;-63
2023/11/01 09:55:54;;;;;;;11.80;11.50;;;22.90;92.70;;;;;;5002682;28;20482;-63
2023/11/01 09:58:21;;;;;;;12.70;12.13;;;22.90;92.40;;;;;;5003626;28;20522;-62
2023/11/01 10:00:51;;;;;;;11.93;11.63;;;22.90;92.20;;;;;;5001613;28;20930;-62
2023/11/01 10:03:19;;;;;;;11.70;11.20;;;22.90;92.20;;;;;;5000105;28;20435;-63
2023/11/01 10:05:46;;;;;;;11.63;11.23;;;22.80;92.20;;;;;;5001548;28;20454;-66
2023/11/01 10:08:13;;;;;;;11.80;11.40;;;22.90;92.20;;;;;;4998392;28;20477;-67
2023/11/01 10:10:42;;;;;;;12.30;11.90;;;22.90;92.40;;;;;;5000115;28;20947;-64
2023/11/01 10:13:09;;;;;;;11.63;11.33;;;22.90;92.40;;;;;;4999809;28;20510;-64
2023/11/01 10:15:39;;;;;;;11.10;10.80;;;23.00;92.50;;;;;;5000053;28;20482;-62
2023/11/01 10:18:06;;;;;;;11.80;11.50;;;22.90;92.30;;;;;;5003381;28;20554;-62
2023/11/01 10:20:32;;;;;;;11.20;10.63;;;22.90;92.50;;;;;;5003358;28;20446;-64
2023/11/01 10:22:59;;;;;;;11.53;11.23;;;22.90;92.50;;;;;;4999902;28;20955;-64
2023/11/01 10:25:26;;;;;;;11.23;11.03;;;22.90;92.40;;;;;;4999914;28;20475;-64
2023/11/01 10:27:55;;;;;;;11.60;11.30;;;23.00;92.40;;;;;;5002493;28;20487;-64
2023/11/01 10:30:22;;;;;;;10.70;10.30;;;23.00;92.30;;;;;;5011774;28;20454;-64
2023/11/01 10:32:59;;;;;;;11.83;11.43;;;22.90;92.30;;;;;;5011855;28;20470;-64
2023/11/01 10:35:27;;;;;;;11.50;11.20;;;23.00;92.30;;;;;;5011545;28;20461;-64
2023/11/01 10:37:58;;;;;;;11.47;11.17;;;23.00;92.30;;;;;;5012648;28;20452;-63
2023/11/01 10:40:26;;;;;;;11.70;11.40;;;23.00;92.20;;;;;;5015263;28;20442;-66
2023/11/01 10:42:57;;;;;;;12.77;12.20;;;23.10;92.40;;;;;;5015301;28;20972;-65
2023/11/01 10:45:24;;;;;;;11.03;10.83;;;23.10;92.30;;;;;;5015257;28;20466;-64
2023/11/01 10:47:52;;;;;;;11.77;11.37;;;23.10;92.20;;;;;;5015292;28;20877;-65
2023/11/01 10:50:19;;;;;;;12.47;11.97;;;23.10;92.10;;;;;;5015263;28;20881;-64
2023/11/01 10:52:48;;;;;;;12.43;12.13;;;23.20;92.00;;;;;;5015231;28;20478;-62
2023/11/01 10:55:19;;;;;;;11.70;11.30;;;23.20;91.90;;;;;;5015087;28;20492;-64
2023/11/01 10:57:49;;;;;;;12.63;12.33;;;23.20;92.10;;;;;;5015271;28;20441;-65
2023/11/01 11:00:24;;;;;;;11.97;11.67;;;23.20;91.80;;;;;;5015023;28;20493;-63
2023/11/01 11:02:54;;;;;;;11.60;11.30;;;23.20;91.80;;;;;;5015075;28;20528;-64
2023/11/01 11:05:27;;;;;;;11.57;11.27;;;23.20;91.80;;;;;;5014878;28;20462;-63
2023/11/01 11:07:56;;;;;;;12.20;11.90;;;23.20;91.70;;;;;;5014907;28;20529;-64
2023/11/01 11:10:27;;;;;;;13.43;12.37;;;23.20;91.80;;;;;;5014791;28;20825;-66
2023/11/01 11:13:25;;;;;;;12.37;12.03;;;23.20;91.80;;;;;;5014494;28;20474;-63
2023/11/01 11:15:59;;;;;;;12.30;12.00;;;23.20;91.80;;;;;;4973462;28;20532;-66
2023/11/01 11:18:27;;;;;;;13.30;12.90;;;23.20;91.80;;;;;;5006869;28;20458;-64
2023/11/01 11:20:55;;;;;;;13.00;12.70;;;23.20;91.70;;;;;;5014737;28;20442;-66
2023/11/01 11:23:31;;;;;;;12.33;11.93;;;23.20;91.70;;;;;;5014451;28;20468;-60
2023/11/01 11:26:00;;;;;;;11.53;11.23;;;23.30;91.50;;;;;;5014602;28;20448;-64
2023/11/01 11:28:47;;;;;;;11.00;10.70;;;23.30;91.50;;;;;;5014523;28;21076;-60
2023/11/01 11:31:23;;;;;;;11.50;11.10;;;23.30;91.30;;;;;;5014440;28;20964;-61
2023/11/01 11:34:11;;;;;;;11.77;11.37;;;23.30;91.30;;;;;;5014641;28;20485;-62
2023/11/01 11:36:38;;;;;;;12.80;12.23;;;23.30;91.20;;;;;;5014363;28;20442;-61
2023/11/01 11:39:10;;;;;;;13.13;12.40;;;23.30;91.60;;;;;;5014236;28;20452;-58
2023/11/01 11:41:47;;;;;;;13.77;13.17;;;23.30;91.60;;;;;;5014249;28;20861;-61
2023/11/01 11:44:15;;;;;;;13.50;12.47;;;23.30;91.60;;;;;;5014099;28;20981;-60
2023/11/01 11:46:44;;;;;;;15.50;14.13;;;23.30;91.50;;;;;;5014317;28;20442;-61
2023/11/01 11:49:22;;;;;;;15.57;14.27;;;23.40;92.90;;;;;;5013949;28;20945;-63
2023/11/01 11:51:54;;;;;;;17.23;15.50;;;23.40;94.00;;;;;;5013796;28;20469;-64
2023/11/01 11:54:22;;;;;;;16.30;14.70;;;23.40;95.50;;;;;;5013644;28;20569;-66
2023/11/01 11:56:52;;;;;;;18.67;15.20;;;23.50;95.60;;;;;;5013870;28;20492;-66
2023/11/01 11:59:21;;;;;;;16.77;15.47;;;23.50;96.90;;;;;;5013879;28;20442;-65
2023/11/01 12:01:51;;;;;;;17.90;16.13;;;23.40;97.30;;;;;;5014020;28;20445;-67
2023/11/01 12:04:18;;;;;;;20.30;18.50;;;23.50;97.40;;;;;;5013920;28;20497;-67
2023/11/01 12:06:46;;;;;;;17.40;15.93;;;23.50;97.20;;;;;;5013651;28;20478;-63
2023/11/01 12:09:17;;;;;;;15.03;13.80;;;23.50;96.80;;;;;;5013807;28;20438;-65
2023/11/01 12:11:45;;;;;;;19.33;14.67;;;23.50;96.10;;;;;;5013858;28;20442;-63
2023/11/01 12:14:16;;;;;;;17.73;14.90;;;23.50;96.50;;;;;;5013499;28;20919;-64
2023/11/01 12:16:43;;;;;;;14.80;13.80;;;23.50;95.90;;;;;;5013543;28;20488;-63
2023/11/01 12:19:16;;;;;;;15.90;14.63;;;23.50;95.60;;;;;;5013659;28;20482;-63
2023/11/01 12:21:45;;;;;;;22.53;16.27;;;23.60;95.80;;;;;;5013470;28;20529;-64
2023/11/01 12:24:14;;;;;;;15.50;14.40;;;23.50;95.70;;;;;;5013334;28;20462;-66
2023/11/01 12:27:05;;;;;;;15.93;14.43;;;23.60;95.50;;;;;;5013306;28;20461;-66
2023/11/01 12:29:45;;;;;;;14.93;13.70;;;23.60;95.40;;;;;;5013543;28;20949;-63
2023/11/01 12:32:13;;;;;;;15.03;13.73;;;23.60;95.40;;;;;;5013263;28;20860;-62
2023/11/01 12:35:04;;;;;;;15.37;14.20;;;23.60;94.90;;;;;;5013112;28;20521;-62
2023/11/01 12:37:32;;;;;;;14.30;13.50;;;23.50;93.20;;;;;;5013126;28;20968;-63
2023/11/01 12:40:10;;;;;;;15.03;14.00;;;23.50;96.10;;;;;;5013145;28;20957;-62